Airport View

Enter AWOS ICAO identifier for current METAR.

ex. KFNL

PADK 261156Z AUTO 19004KT 10SM OVC023 07/04 A2962

26 Jun 2019 12:59

Frequency: 134.5

Phone: 907-592-8207

Other Area AWOS: PAAK

TAF AMD PASY 261125Z 2611/2712 31015KT 3200 BR BKN013 OVC015 620601 QNH2952INS TEMPO 2611/2613 0800 FG BKN007 BECMG 2703/2704 24010KT 2400 BR BKN003 QNH2967INS BECMG 2709/2710 18015G20KT 2400 BR BKN002 620604 QNH2968INS TX08/2702Z TN04/2618Z